createdAt,value
2023-03-07T00:01:22.034Z,-1.26
2023-03-07T00:03:48.627Z,-1.26
2023-03-07T00:06:16.621Z,-1.25
2023-03-07T00:08:43.230Z,-1.21
2023-03-07T00:11:10.198Z,-1.16
2023-03-07T00:13:38.185Z,-1.13
2023-03-07T00:16:07.482Z,-1.11
2023-03-07T00:18:35.171Z,-1.08
2023-03-07T00:21:04.076Z,-1.05
2023-03-07T00:23:32.397Z,-1.02
2023-03-07T00:26:00.386Z,-0.97
2023-03-07T00:28:27.651Z,-0.94
2023-03-07T00:30:54.442Z,-0.92
2023-03-07T00:33:21.420Z,-0.87
2023-03-07T00:35:55.486Z,-0.85
2023-03-07T00:38:22.268Z,-0.80
2023-03-07T00:40:57.858Z,-0.75
2023-03-07T00:43:24.742Z,-0.71
2023-03-07T00:45:51.478Z,-0.68
2023-03-07T00:48:18.028Z,-0.65
2023-03-07T00:50:44.705Z,-0.62
2023-03-07T00:53:11.341Z,-0.59
2023-03-07T00:55:37.902Z,-0.57
2023-03-07T00:58:06.248Z,-0.55
2023-03-07T01:00:33.221Z,-0.55
2023-03-07T01:02:59.886Z,-0.52
2023-03-07T01:05:26.683Z,-0.52
2023-03-07T01:07:53.255Z,-0.51
2023-03-07T01:10:19.903Z,-0.50
2023-03-07T01:12:46.518Z,-0.48
2023-03-07T01:15:14.642Z,-0.47
2023-03-07T01:17:41.285Z,-0.46
2023-03-07T01:20:09.286Z,-0.44
2023-03-07T01:22:35.903Z,-0.43
2023-03-07T01:25:02.612Z,-0.41
2023-03-07T01:27:29.309Z,-0.41
2023-03-07T01:29:55.906Z,-0.38
2023-03-07T01:32:24.238Z,-0.37
2023-03-07T01:34:50.954Z,-0.36
2023-03-07T01:37:17.565Z,-0.34
2023-03-07T01:39:44.156Z,-0.33
2023-03-07T01:42:10.782Z,-0.29
2023-03-07T01:44:58.902Z,-0.26
2023-03-07T01:47:27.029Z,-0.23
2023-03-07T01:49:54.480Z,-0.19
2023-03-07T01:52:23.665Z,-0.16
2023-03-07T01:54:52.556Z,-0.14
2023-03-07T01:57:21.249Z,-0.10
2023-03-07T01:59:50.920Z,-0.06
2023-03-07T02:02:20.717Z,-0.02
2023-03-07T02:04:52.921Z,0.02
2023-03-07T02:07:24.450Z,0.04
2023-03-07T02:09:53.389Z,0.07
2023-03-07T02:12:22.221Z,0.09
2023-03-07T02:14:50.635Z,0.11
2023-03-07T02:17:17.657Z,0.14
2023-03-07T02:19:56.993Z,0.16
2023-03-07T02:22:24.799Z,0.20
2023-03-07T02:24:55.766Z,0.22
2023-03-07T02:27:25.423Z,0.25
2023-03-07T02:29:52.368Z,0.27
2023-03-07T02:32:18.918Z,0.29
2023-03-07T02:34:45.522Z,0.32
2023-03-07T02:37:16.356Z,0.32
2023-03-07T02:39:45.024Z,0.34
2023-03-07T02:42:16.249Z,0.37
2023-03-07T02:44:46.162Z,0.39
2023-03-07T02:47:12.813Z,0.41
2023-03-07T02:49:39.464Z,0.43
2023-03-07T02:52:06.759Z,0.45
2023-03-07T02:54:33.370Z,0.47
2023-03-07T02:56:59.920Z,0.49
2023-03-07T02:59:26.678Z,0.51
2023-03-07T03:01:54.717Z,0.51
2023-03-07T03:04:21.397Z,0.54
2023-03-07T03:06:48.058Z,0.55
2023-03-07T03:09:14.640Z,0.58
2023-03-07T03:11:41.306Z,0.58
2023-03-07T03:14:07.986Z,0.60
2023-03-07T03:16:34.644Z,0.62
2023-03-07T03:19:02.689Z,0.64
2023-03-07T03:21:29.411Z,0.67
2023-03-07T03:23:55.980Z,0.69
2023-03-07T03:26:22.666Z,0.71
2023-03-07T03:28:49.531Z,0.73
2023-03-07T03:31:16.465Z,0.75
2023-03-07T03:33:43.576Z,0.76
2023-03-07T03:36:14.229Z,0.78
2023-03-07T03:38:40.851Z,0.79
2023-03-07T03:41:10.297Z,0.82
2023-03-07T03:43:36.851Z,0.85
2023-03-07T03:46:03.653Z,0.89
2023-03-07T03:48:30.907Z,0.93
2023-03-07T03:51:01.342Z,0.95
2023-03-07T03:53:30.151Z,0.97
2023-03-07T03:56:01.867Z,1.01
2023-03-07T03:58:28.545Z,1.04
2023-03-07T04:00:55.097Z,1.09
2023-03-07T04:03:21.777Z,1.12
2023-03-07T04:05:48.413Z,1.15
2023-03-07T04:08:15.034Z,1.18
2023-03-07T04:10:43.005Z,1.22
2023-03-07T04:13:09.538Z,1.25
2023-03-07T04:15:36.128Z,1.28
2023-03-07T04:18:02.750Z,1.31
2023-03-07T04:20:29.333Z,1.33
2023-03-07T04:22:55.962Z,1.35
2023-03-07T04:25:22.764Z,1.37
2023-03-07T04:27:50.697Z,1.40
2023-03-07T04:30:17.321Z,1.41
2023-03-07T04:32:44.009Z,1.44
2023-03-07T04:35:10.614Z,1.46
2023-03-07T04:37:37.237Z,1.47
2023-03-07T04:40:04.302Z,1.49
2023-03-07T04:42:30.845Z,1.50
2023-03-07T04:44:58.768Z,1.51
2023-03-07T04:47:25.362Z,1.52
2023-03-07T04:49:52.079Z,1.53
2023-03-07T04:52:18.710Z,1.54
2023-03-07T04:54:45.364Z,1.54
2023-03-07T04:57:11.987Z,1.53
2023-03-07T04:59:38.619Z,1.55
2023-03-07T05:02:08.320Z,1.55
2023-03-07T05:04:34.974Z,1.57
2023-03-07T05:07:01.582Z,1.56
2023-03-07T05:09:28.248Z,1.57
2023-03-07T05:11:54.923Z,1.58
2023-03-07T05:14:22.117Z,1.58
2023-03-07T05:16:48.802Z,1.58
2023-03-07T05:19:16.847Z,1.57
2023-03-07T05:21:43.493Z,1.59
2023-03-07T05:24:10.269Z,1.58
2023-03-07T05:26:36.978Z,1.59
2023-03-07T05:29:03.653Z,1.60
2023-03-07T05:31:30.265Z,1.60
2023-03-07T05:33:56.839Z,1.60
2023-03-07T05:36:24.868Z,1.61
2023-03-07T05:38:51.486Z,1.61
2023-03-07T05:41:18.246Z,1.61
2023-03-07T05:43:44.880Z,1.62
2023-03-07T05:46:11.493Z,1.64
2023-03-07T05:48:38.075Z,1.65
2023-03-07T05:51:04.982Z,1.65
2023-03-07T05:53:33.000Z,1.66
2023-03-07T05:55:59.648Z,1.67
2023-03-07T05:58:26.239Z,1.68
2023-03-07T06:00:52.973Z,1.69
2023-03-07T06:03:19.572Z,1.70
2023-03-07T06:05:49.493Z,1.71
2023-03-07T06:08:16.232Z,1.72
2023-03-07T06:10:44.188Z,1.75
2023-03-07T06:13:20.238Z,1.76
2023-03-07T06:15:49.206Z,1.79
2023-03-07T06:18:15.833Z,1.81
2023-03-07T06:20:42.571Z,1.83
2023-03-07T06:23:09.279Z,1.87
2023-03-07T06:25:36.541Z,1.89
2023-03-07T06:28:04.668Z,1.91
2023-03-07T06:30:31.237Z,1.92
2023-03-07T06:32:57.985Z,1.94
2023-03-07T06:35:24.642Z,1.97
2023-03-07T06:37:51.470Z,1.99
2023-03-07T06:40:18.272Z,2.01
2023-03-07T06:42:44.874Z,2.03
2023-03-07T06:45:12.938Z,2.05
2023-03-07T06:47:39.658Z,2.06
2023-03-07T06:50:07.662Z,2.08
2023-03-07T06:52:34.261Z,2.12
2023-03-07T06:55:00.834Z,2.15
2023-03-07T06:57:27.470Z,2.18
2023-03-07T06:59:54.112Z,2.21
2023-03-07T07:02:22.237Z,2.21
2023-03-07T07:04:48.863Z,2.23
2023-03-07T07:07:15.498Z,2.26
2023-03-07T07:09:42.060Z,2.27
2023-03-07T07:12:09.000Z,2.31
2023-03-07T07:14:35.563Z,2.35
2023-03-07T07:17:02.313Z,2.39
2023-03-07T07:19:30.440Z,2.45
2023-03-07T07:21:57.126Z,2.49
2023-03-07T07:24:23.963Z,2.54
2023-03-07T07:26:50.665Z,2.60
2023-03-07T07:29:17.295Z,2.63
2023-03-07T07:31:44.018Z,2.68
2023-03-07T07:34:10.845Z,2.71
2023-03-07T07:36:38.942Z,2.73
2023-03-07T07:39:06.729Z,2.78
2023-03-07T07:41:34.227Z,2.81
2023-03-07T07:44:00.803Z,2.82
2023-03-07T07:46:27.552Z,2.85
2023-03-07T07:48:54.184Z,2.88
2023-03-07T07:51:21.030Z,2.93
2023-03-07T07:53:49.116Z,2.98
2023-03-07T07:56:15.851Z,3.04
2023-03-07T07:58:42.469Z,3.10
2023-03-07T08:01:13.687Z,3.14
2023-03-07T08:03:40.358Z,3.17
2023-03-07T08:06:07.359Z,3.19
2023-03-07T08:08:34.106Z,3.22
2023-03-07T08:11:02.192Z,3.21
2023-03-07T08:13:28.782Z,3.19
2023-03-07T08:15:55.466Z,3.19
2023-03-07T08:18:22.335Z,3.17
2023-03-07T08:20:48.888Z,3.17
2023-03-07T08:23:15.520Z,3.16
2023-03-07T08:25:42.088Z,3.18
2023-03-07T08:28:10.016Z,3.17
2023-03-07T08:30:36.567Z,3.19
2023-03-07T08:33:03.306Z,3.24
2023-03-07T08:35:31.705Z,3.27
2023-03-07T08:37:59.051Z,3.32
2023-03-07T08:40:26.230Z,3.38
2023-03-07T08:42:52.877Z,3.44
2023-03-07T08:45:22.761Z,3.52
2023-03-07T08:47:52.355Z,3.58
2023-03-07T08:50:19.296Z,3.64
2023-03-07T08:52:45.963Z,3.69
2023-03-07T08:55:12.639Z,3.75
2023-03-07T08:57:39.210Z,3.79
2023-03-07T09:00:07.335Z,3.82
2023-03-07T09:02:35.592Z,3.86
2023-03-07T09:05:02.464Z,3.90
2023-03-07T09:07:29.182Z,3.96
2023-03-07T09:09:55.758Z,4.01
2023-03-07T09:12:22.461Z,4.06
2023-03-07T09:14:49.169Z,4.09
2023-03-07T09:17:15.774Z,4.15
2023-03-07T09:19:43.805Z,4.23
2023-03-07T09:22:10.331Z,4.30
2023-03-07T09:24:36.975Z,4.40
2023-03-07T09:27:03.727Z,4.47
2023-03-07T09:29:30.476Z,4.52
2023-03-07T09:31:57.084Z,4.53
2023-03-07T09:34:23.657Z,4.57
2023-03-07T09:36:51.670Z,4.61
2023-03-07T09:39:18.664Z,4.64
2023-03-07T09:41:59.157Z,4.69
2023-03-07T09:44:41.721Z,4.76
2023-03-07T09:47:25.185Z,4.84
2023-03-07T09:49:53.260Z,4.92
2023-03-07T09:52:24.805Z,5.01
2023-03-07T09:54:56.884Z,5.12
2023-03-07T09:57:27.785Z,5.21
2023-03-07T09:59:59.871Z,5.35
2023-03-07T10:02:29.018Z,5.44
2023-03-07T10:05:03.652Z,5.51
2023-03-07T10:07:35.072Z,5.61
2023-03-07T10:10:04.542Z,5.74
2023-03-07T10:13:05.143Z,5.86
2023-03-07T10:15:42.276Z,5.94
2023-03-07T10:18:21.206Z,6.01
2023-03-07T10:20:51.741Z,6.05
2023-03-07T10:23:45.414Z,6.03
2023-03-07T10:26:16.893Z,6.00
2023-03-07T10:28:45.690Z,5.99
2023-03-07T10:31:19.205Z,5.98
2023-03-07T10:33:48.031Z,5.97
2023-03-07T10:36:19.555Z,5.93
2023-03-07T10:38:57.682Z,5.91
2023-03-07T10:41:24.585Z,5.89
2023-03-07T10:43:52.962Z,5.89
2023-03-07T10:46:26.473Z,5.87
2023-03-07T10:48:56.054Z,5.85
2023-03-07T10:51:42.618Z,5.88
2023-03-07T10:54:15.217Z,5.93
2023-03-07T10:56:41.968Z,5.99
2023-03-07T10:59:10.154Z,6.07
2023-03-07T11:01:38.476Z,6.18
2023-03-07T11:04:06.796Z,6.29
2023-03-07T11:06:38.529Z,6.38
2023-03-07T11:09:15.197Z,6.44
2023-03-07T11:11:48.181Z,6.46
2023-03-07T11:14:16.472Z,6.46
2023-03-07T11:16:49.432Z,6.47
2023-03-07T11:19:31.432Z,6.50
2023-03-07T11:21:59.653Z,6.49
2023-03-07T11:24:29.938Z,6.46
2023-03-07T11:26:57.839Z,6.42
2023-03-07T11:29:24.914Z,6.42
2023-03-07T11:32:04.060Z,6.38
2023-03-07T11:34:37.746Z,6.39
2023-03-07T11:37:26.032Z,6.40
2023-03-07T11:40:03.586Z,6.34
2023-03-07T11:42:34.053Z,6.26
2023-03-07T11:45:11.128Z,6.19
2023-03-07T11:47:47.824Z,6.14
2023-03-07T11:50:19.977Z,6.09
2023-03-07T11:53:09.229Z,6.06
2023-03-07T11:55:42.148Z,5.99
2023-03-07T11:58:41.369Z,5.98
2023-03-07T12:01:14.142Z,5.98
2023-03-07T12:04:01.640Z,5.94
2023-03-07T12:06:39.829Z,5.83
2023-03-07T12:09:18.407Z,5.75
2023-03-07T12:12:06.846Z,5.72
2023-03-07T12:14:44.330Z,5.65
2023-03-07T12:17:27.557Z,5.51
2023-03-07T12:20:17.409Z,5.42
2023-03-07T12:22:53.393Z,5.33
2023-03-07T12:25:26.499Z,5.26
2023-03-07T12:28:05.428Z,5.26
2023-03-07T12:30:43.130Z,5.26
2023-03-07T12:33:19.530Z,5.23
2023-03-07T12:35:51.261Z,5.20
2023-03-07T12:38:26.701Z,5.14
2023-03-07T12:41:00.163Z,5.09
2023-03-07T12:43:34.201Z,5.09
2023-03-07T12:46:12.251Z,5.09
2023-03-07T12:48:44.477Z,5.07
2023-03-07T12:51:20.169Z,5.03
2023-03-07T12:53:51.238Z,4.99
2023-03-07T12:56:22.224Z,4.96
2023-03-07T12:58:56.578Z,4.93
2023-03-07T13:01:28.155Z,4.92
2023-03-07T13:04:02.480Z,4.91
2023-03-07T13:06:30.339Z,4.88
2023-03-07T13:09:00.365Z,4.89
2023-03-07T13:11:33.661Z,4.88
2023-03-07T13:14:01.896Z,4.86
2023-03-07T13:16:42.392Z,4.84
2023-03-07T13:19:50.321Z,4.82
2023-03-07T13:22:54.386Z,4.84
2023-03-07T13:25:53.921Z,4.81
2023-03-07T13:28:49.842Z,4.76
2023-03-07T13:31:41.951Z,4.71
2023-03-07T13:34:47.319Z,4.65
2023-03-07T13:37:50.723Z,4.62
2023-03-07T13:40:50.376Z,4.61
2023-03-07T13:43:53.753Z,4.62
2023-03-07T13:46:52.361Z,4.61
2023-03-07T13:49:47.433Z,4.57
2023-03-07T13:52:32.949Z,4.57
2023-03-07T13:55:02.126Z,4.58
2023-03-07T13:57:37.246Z,4.59
2023-03-07T14:00:18.537Z,4.59
2023-03-07T14:02:46.877Z,4.61
2023-03-07T14:05:14.197Z,4.62
2023-03-07T14:07:41.549Z,4.64
2023-03-07T14:10:22.397Z,4.65
2023-03-07T14:13:17.726Z,4.68
2023-03-07T14:15:57.218Z,4.70
2023-03-07T14:18:39.733Z,4.71
2023-03-07T14:21:13.778Z,4.73
2023-03-07T14:23:56.892Z,4.72
2023-03-07T14:26:29.266Z,4.74
2023-03-07T14:28:59.865Z,4.74
2023-03-07T14:31:30.292Z,4.73
2023-03-07T14:33:58.856Z,4.74
2023-03-07T14:36:31.127Z,4.76
2023-03-07T14:39:00.961Z,4.82
2023-03-07T14:41:41.357Z,4.89
2023-03-07T14:44:35.823Z,4.93
2023-03-07T14:47:16.882Z,4.96
2023-03-07T14:49:55.270Z,5.00
2023-03-07T14:52:30.795Z,5.03
2023-03-07T14:55:01.339Z,5.04
2023-03-07T14:57:32.254Z,5.05
2023-03-07T15:00:13.218Z,5.09
2023-03-07T15:02:46.996Z,5.09
2023-03-07T15:05:20.756Z,5.12
2023-03-07T15:07:48.099Z,5.15
2023-03-07T15:10:17.015Z,5.19
2023-03-07T15:12:47.852Z,5.19
2023-03-07T15:15:23.503Z,5.20
2023-03-07T15:17:52.318Z,5.20
2023-03-07T15:20:23.793Z,5.19
2023-03-07T15:22:56.509Z,5.19
2023-03-07T15:25:25.970Z,5.21
2023-03-07T15:27:58.896Z,5.21
2023-03-07T15:30:29.091Z,5.21
2023-03-07T15:33:11.988Z,5.21
2023-03-07T15:35:40.301Z,5.17
2023-03-07T15:38:13.410Z,5.13
2023-03-07T15:40:40.514Z,5.07
2023-03-07T15:43:24.326Z,5.03
2023-03-07T15:46:01.166Z,5.03
2023-03-07T15:48:35.951Z,5.01
2023-03-07T15:51:09.250Z,5.00
2023-03-07T15:53:39.299Z,5.00
2023-03-07T15:56:20.664Z,4.98
2023-03-07T15:58:47.967Z,4.97
2023-03-07T16:01:20.630Z,4.95
2023-03-07T16:03:52.221Z,4.94
2023-03-07T16:06:42.201Z,4.93
2023-03-07T16:09:12.737Z,4.90
2023-03-07T16:11:40.089Z,4.87
2023-03-07T16:14:14.074Z,4.84
2023-03-07T16:16:41.965Z,4.81
2023-03-07T16:19:10.156Z,4.78
2023-03-07T16:21:36.802Z,4.76
2023-03-07T16:24:05.267Z,4.72
2023-03-07T16:26:32.099Z,4.69
2023-03-07T16:29:00.323Z,4.66
2023-03-07T16:31:28.224Z,4.62
2023-03-07T16:33:55.181Z,4.54
2023-03-07T16:36:22.141Z,4.49
2023-03-07T16:38:48.814Z,4.44
2023-03-07T16:41:18.485Z,4.40
2023-03-07T16:43:46.732Z,4.38
2023-03-07T16:46:16.154Z,4.34
2023-03-07T16:48:43.606Z,4.29
2023-03-07T16:51:14.119Z,4.25
2023-03-07T16:53:40.718Z,4.21
2023-03-07T16:56:14.955Z,4.17
2023-03-07T16:58:45.922Z,4.14
2023-03-07T17:01:13.717Z,4.10
2023-03-07T17:03:40.696Z,4.07
2023-03-07T17:06:11.776Z,4.03
2023-03-07T17:08:38.382Z,4.00
2023-03-07T17:11:12.070Z,3.98
2023-03-07T17:13:38.753Z,3.94
2023-03-07T17:16:11.951Z,3.91
2023-03-07T17:18:38.547Z,3.88
2023-03-07T17:21:05.595Z,3.86
2023-03-07T17:23:32.213Z,3.85
2023-03-07T17:25:58.922Z,3.83
2023-03-07T17:28:25.561Z,3.80
2023-03-07T17:30:52.261Z,3.78
2023-03-07T17:33:20.277Z,3.76
2023-03-07T17:35:47.155Z,3.74
2023-03-07T17:38:13.933Z,3.72
2023-03-07T17:40:40.608Z,3.70
2023-03-07T17:43:07.301Z,3.67
2023-03-07T17:45:34.009Z,3.65
2023-03-07T17:48:00.812Z,3.63
2023-03-07T17:50:28.907Z,3.62
2023-03-07T17:52:55.647Z,3.60
2023-03-07T17:55:23.192Z,3.57
2023-03-07T17:57:50.006Z,3.54
2023-03-07T18:00:20.273Z,3.52
2023-03-07T18:02:47.595Z,3.48
2023-03-07T18:05:14.226Z,3.48
2023-03-07T18:07:42.554Z,3.44
2023-03-07T18:10:11.130Z,3.43
2023-03-07T18:12:38.439Z,3.40
2023-03-07T18:15:06.759Z,3.37
2023-03-07T18:17:46.668Z,3.34
2023-03-07T18:20:14.731Z,3.32
2023-03-07T18:22:42.921Z,3.27
2023-03-07T18:25:13.203Z,3.25
2023-03-07T18:27:39.803Z,3.24
2023-03-07T18:30:07.656Z,3.23
2023-03-07T18:32:34.585Z,3.21
2023-03-07T18:35:01.321Z,3.19
2023-03-07T18:37:28.142Z,3.15
2023-03-07T18:39:56.191Z,3.13
2023-03-07T18:42:22.913Z,3.13
2023-03-07T18:44:49.823Z,3.12
2023-03-07T18:47:16.485Z,3.10
2023-03-07T18:49:43.045Z,3.08
2023-03-07T18:52:09.679Z,3.06
2023-03-07T18:54:36.272Z,3.04
2023-03-07T18:57:04.422Z,3.04
2023-03-07T18:59:31.107Z,3.03
2023-03-07T19:01:57.928Z,3.00
2023-03-07T19:04:24.571Z,2.98
2023-03-07T19:06:51.249Z,2.99
2023-03-07T19:09:19.893Z,2.99
2023-03-07T19:11:47.387Z,2.97
2023-03-07T19:14:15.505Z,2.98
2023-03-07T19:16:42.290Z,2.96
2023-03-07T19:19:09.178Z,2.96
2023-03-07T19:21:35.855Z,2.94
2023-03-07T19:24:02.835Z,2.91
2023-03-07T19:26:29.871Z,2.91
2023-03-07T19:28:57.366Z,2.90
2023-03-07T19:31:27.196Z,2.88
2023-03-07T19:33:54.358Z,2.87
2023-03-07T19:36:22.348Z,2.86
2023-03-07T19:38:50.914Z,2.84
2023-03-07T19:41:19.515Z,2.80
2023-03-07T19:43:46.537Z,2.79
2023-03-07T19:46:15.119Z,2.79
2023-03-07T19:48:43.286Z,2.78
2023-03-07T19:51:14.107Z,2.77
2023-03-07T19:53:41.325Z,2.74
2023-03-07T19:56:09.627Z,2.73
2023-03-07T19:58:36.558Z,2.72
2023-03-07T20:01:06.980Z,2.72
2023-03-07T20:03:33.813Z,2.72
2023-03-07T20:06:03.346Z,2.72
2023-03-07T20:08:30.072Z,2.71
2023-03-07T20:11:08.786Z,2.70
2023-03-07T20:13:36.089Z,2.69
2023-03-07T20:16:03.056Z,2.68
2023-03-07T20:18:29.778Z,2.67
2023-03-07T20:20:56.730Z,2.67
2023-03-07T20:23:24.772Z,2.64
2023-03-07T20:25:51.826Z,2.62
2023-03-07T20:28:18.593Z,2.61
2023-03-07T20:30:45.663Z,2.59
2023-03-07T20:33:12.495Z,2.59
2023-03-07T20:35:39.392Z,2.57
2023-03-07T20:38:06.052Z,2.57
2023-03-07T20:40:34.351Z,2.54
2023-03-07T20:43:00.967Z,2.54
2023-03-07T20:45:28.054Z,2.53
2023-03-07T20:47:55.056Z,2.52
2023-03-07T20:50:21.923Z,2.53
2023-03-07T20:52:48.531Z,2.52
2023-03-07T20:55:15.539Z,2.53
2023-03-07T20:57:43.686Z,2.52
2023-03-07T21:00:11.638Z,2.51
2023-03-07T21:02:38.213Z,2.50
2023-03-07T21:05:05.340Z,2.50
2023-03-07T21:07:31.960Z,2.50
2023-03-07T21:09:58.518Z,2.49
2023-03-07T21:12:25.130Z,2.48
2023-03-07T21:14:53.124Z,2.48
2023-03-07T21:17:19.679Z,2.47
2023-03-07T21:19:46.305Z,2.44
2023-03-07T21:22:12.867Z,2.45
2023-03-07T21:24:39.565Z,2.41
2023-03-07T21:27:06.178Z,2.41
2023-03-07T21:29:32.864Z,2.39
2023-03-07T21:32:00.827Z,2.38
2023-03-07T21:34:27.394Z,2.36
2023-03-07T21:36:54.132Z,2.36
2023-03-07T21:39:20.690Z,2.35
2023-03-07T21:41:47.306Z,2.33
2023-03-07T21:44:14.121Z,2.33
2023-03-07T21:46:41.082Z,2.33
2023-03-07T21:49:09.143Z,2.31
2023-03-07T21:51:35.769Z,2.31
2023-03-07T21:54:02.414Z,2.30
2023-03-07T21:56:29.104Z,2.29
2023-03-07T21:58:55.770Z,2.29
2023-03-07T22:01:25.169Z,2.27
2023-03-07T22:03:52.271Z,2.25
2023-03-07T22:06:20.677Z,2.23
2023-03-07T22:08:47.316Z,2.21
2023-03-07T22:11:14.472Z,2.18
2023-03-07T22:13:41.933Z,2.17
2023-03-07T22:16:11.427Z,2.16
2023-03-07T22:18:38.310Z,2.13
2023-03-07T22:21:09.621Z,2.11
2023-03-07T22:23:37.612Z,2.10
2023-03-07T22:26:06.002Z,2.10
2023-03-07T22:28:33.051Z,2.09
2023-03-07T22:31:03.607Z,2.08
2023-03-07T22:33:30.461Z,2.07
2023-03-07T22:35:58.876Z,2.07
2023-03-07T22:38:25.830Z,2.07
2023-03-07T22:40:53.729Z,2.06
2023-03-07T22:43:20.362Z,2.06
2023-03-07T22:45:48.293Z,2.04
2023-03-07T22:48:15.080Z,2.03
2023-03-07T22:50:41.701Z,2.02
2023-03-07T22:53:08.294Z,2.03
2023-03-07T22:55:39.382Z,2.02
2023-03-07T22:58:07.411Z,2.00
2023-03-07T23:00:34.038Z,2.00
2023-03-07T23:03:01.678Z,1.99
2023-03-07T23:05:30.289Z,1.98
2023-03-07T23:07:57.079Z,1.96
2023-03-07T23:10:23.755Z,1.94
2023-03-07T23:12:50.982Z,1.93
2023-03-07T23:15:18.967Z,1.92
2023-03-07T23:17:45.795Z,1.90
2023-03-07T23:20:12.931Z,1.89
2023-03-07T23:22:39.885Z,1.87
2023-03-07T23:25:07.067Z,1.85
2023-03-07T23:27:33.636Z,1.83
2023-03-07T23:30:00.285Z,1.78
2023-03-07T23:32:28.291Z,1.75
2023-03-07T23:34:54.921Z,1.73
2023-03-07T23:37:21.489Z,1.69
2023-03-07T23:39:48.265Z,1.67
2023-03-07T23:42:14.880Z,1.64
2023-03-07T23:44:41.487Z,1.62
2023-03-07T23:47:08.114Z,1.60
2023-03-07T23:49:36.083Z,1.56
2023-03-07T23:52:03.299Z,1.52
2023-03-07T23:54:29.852Z,1.50
2023-03-07T23:56:56.426Z,1.46
2023-03-07T23:59:23.048Z,1.43
